zaterdag 16 december 2017 Home | Bestenlijsten | Nieuws | Uitslagen | Wedstrijden | VZA Ranglijsten | Weer |
 
 
Recent nieuws meer nieuws
11-12: De ene crosser is de andere niet
29-11: Komen sportorganisaties onder druk te staan?
21-11: Verspringer Steven Nuytinck moet stoppen vanwege achillespeesblessure
20-11: Hamid El Mouaziz speelt met tegenstanders in jubilerende 50e Mosselloop
11-11: 50e Mosselloop is prooi voor El Mouaziz
05-11: Erwin Harmes en Tim van den Broeke winnen Trail by the Sea
Wedstrijdagenda meer wedstrijden
za 16-12: Kriekeloop Clinge
za 16-12: Stratenloop Menheerse Middelharnis
za 16-12: 18e Aagtekerke Run
zo 17-12: 12e Spark marathon Spijkenisse
di 26-12: Kerstloop Dishoek
za 30-12: Eindejaarscross Axel
zo 31-12: 37e Sylvestercross Soest
zo 31-12: Tankloop Westkapelle
zo 31-12: 2e Natuurloop Aardenburg
vr 05-01: Ondoloop Sint Laurens
za 06-01: Jeff Thuy Memorial Heikant
za 06-01: Sportdorploop Oostkapelle
za 06-01: 57e Wallenloop Goes
zo 07-01: Scheidsrechtersloop Vlissingen
za 13-01: 20e Steense Rattenloop Sint Jansteen
za 13-01: 46e Deltacross Westenschouwen
zo 14-01: 46e Halve van Egmond
za 20-01: 1e Dow trimloop Terneuzen
Recente uitslagen meer uitslagen
zo 10-12: Jules Unlimitedloop Breskens
za 09-12: Halve Marathon Terneuzen (142)
za 02-12: 25e Inkelcross Kruiningen (154)
zo 26-11: 18e Zakloop Nisse (668)
za 18-11: 17e Hobbeldebobbelloop Zoutelande (293)
zo 12-11: 1e Natuurloop Retranchement (73)
za 11-11: 50e Mosselloop Westenschouwen (363)
za 11-11: Jeff Thuy Memorial Heikant (134)
zo 05-11: 7e Trail By The Sea Renesse (405)
za 04-11: 32e Moerschanscross Hulst (126)
za 04-11: Appelloop Axel (172)
 
Zoek tenminste met 3 tekens van wedstrijd, datum, plaats of atleet
32e Elderschanscross
Aardenburg, zaterdag 25 november 2017 - Organisatie: Wielingen
9.85 km
PltsNaam
Tijdkm/umin/km
1  Patrick van PetegemZottegem34.39M35   17.056  3:31
2  Martijn de KokAV'5635.17M35   16.750  3:35
3  Bart BleyaertJC Aalter35.47M35   16.516  3:38
4  David BouwmanPAC35.55Mse   16.455  3:39
5  Yunis StitanDelta Sport36.31Mse   16.184  3:42
6  Eric WolfertFlakkee36.34Mse   16.162  3:43
7  Sergio HarinckGonzalez Running37.16JoA   15.859  3:47
8  Angelo van NevelZedelgem37.55Mse   15.587  3:51
9  Michiel LelieRKHAV38.04Mse   15.525  3:52
10  Arjo VerhageDynamica39.18M45   15.038  3:59
11  Michael de HamerScheldesport39.23M35   15.006  4:00
12  Edward de LengDynamica39.51M55   14.831  4:03
13  Freek GoedhartFlakkee39.56Mse   14.800  4:03
14  Piet van MourikDelta Sport40.16M50   14.677  4:05
15  Christian PlumeZottegem40.42M45   14.521  4:08
16  Endy SlockScheldesport40.47M40   14.491  4:08
17  Monique VerschuureAV'5641.12V35   14.345  4:11
18  Edwin van AlphenDynamica41.16M45   14.321  4:11
19  Frederique VersluijsWielingen41.20V45   14.298  4:12
20  Frank van den BrandenRKHAV41.29M55   14.247  4:13
21  Martijn HoosemansDynamica41.33M35   14.224  4:13
22  Ronny FresonieSluis41.56Mse   14.094  4:15
23  Adriaan WielesScheldesport42.00M45   14.071  4:16
24  Jan Willem MeeuwseAV'5642.09M55   14.021  4:17
25  Monica SanderseDynamica42.27V35   13.922  4:19
26  Herman van de VeldeZottegem42.31M45   13.900  4:19
27  Esther PlatteeuwScheldesport42.45Vse   13.825  4:20
28  Bas de NooijerGonzalez Running43.04Mse   13.723  4:22
29  Bjorn van BoxstaelZottegem43.10M35   13.691  4:23
30  Peter SlitsSluis43.43M45   13.519  4:26
31  Albert PlatteeuwScheldesport43.59M50   13.437  4:28
32  Francois van den BroeckeWielingen44.15M45   13.356  4:30
33  Alwin de ZeeuwScheldesport44.40M45   13.231  4:32
34  Johan LooijHerkingen44.54Mse   13.163  4:34
35  Henk LousDynamica44.56M55   13.153  4:34
36  Paola van GilstAV'5644.58V40   13.143  4:34
37  Patrick de BoevereWielingen45.10M50   13.085  4:35
38  Marcel SommeijerDynamica45.23M45   13.022  4:36
39  Robert van de KerkhoveAardenburg45.27M40   13.003  4:37
40  Jacques ZamanScheldesport45.45M55   12.918  4:39
41  Wim de JongeAV'5646.06M65   12.820  4:41
42  Niek WielandAxel46.10M40   12.801  4:41
43  Harold de MaatScheldesport46.19M45   12.760  4:42
44  Maurice SteketeeMiddelburg46.22M35   12.746  4:42
45  Walther MurreScheldesport46.29M45   12.714  4:43
46  Renate de ReusDynamica47.23Vse   12.473  4:49
47  Johnny DoomsTerneuzen47.29M60   12.446  4:49
48  Twan TimmermansHoofdplaat47.53M55   12.342  4:52
49  Ebe BlaauwScheldesport48.13M60   12.257  4:54
50  William de JongeNieuwdorp48.18M45   12.236  4:54
51  Kees van der HeijdenDynamica48.19M45   12.232  4:54
52  Berry KnibbelerScheldesport48.39M55   12.148  4:56
53  Durby MeijboomVlissingen48.41V35   12.140  4:57
54  Siem CornelisseDynamica49.10M65   12.020  4:59
55  Natasja BooijScheldesport49.35V45   11.919  5:02
56  Ron DellebekeDynamica49.52M55   11.852  5:04
57  Inge de BooijScheldesport50.13Vse   11.769  5:06
58  Rudie HogervorstWielingen50.15M50   11.761  5:06
59  Monique NobusAardenburg50.18Vse   11.750  5:06
60  Jan van HoeveWielingen50.24M65   11.726  5:07
61  Jos de KreekScheldesport50.47M50   11.638  5:09
62  Dave LouwsDynamica51.18M65   11.520  5:12
63  John GuequierreDynamica51.41M65   11.435  5:15
64  Rian FlikweertDynamica51.51V55   11.398  5:16
65  Piet BeijerDynamica51.58M65   11.373  5:17
66  Hans LievenseMiddelburg52.19M45   11.297  5:19
67  Monique AllefsRKHAV53.12V45   11.109  5:24
68  Jannie de VriesDynamica54.07V55   10.921  5:30
69  Paz BoekhoutSint Kruis55.06M35   10.726  5:36
70  Kobus BotmanDynamica55.22M65   10.674  5:37
71  Arthur StijnsDynamica56.57M65   10.378  5:47
72  Ineke TempelaarDynamica57.10V55   10.338  5:48
73  Corina LievenseMiddelburg58.13V40   10.152  5:55
74  Ingrid RasenbergDelta Sport1.02.09Vse   9.509  6:19
75  Mandy HeppenerScheldesport1.02.11V35   9.504  6:19
Mannen: 57 (76%) => M35=8 - M40=3 - M45=14 - M50=5 - M55=8 - M60=2 - M65=8 - Mse=9
Vrouwen: 17 (22.67%) => V35=4 - V40=2 - V45=3 - V55=3 - Vse=5

Overzicht Top3, winnares en aantal deelnemers in eerdere jaren

JaarWinnaarTijd2eTijd 3eTijdWinnaresTijd#
2017Patrick van Petegem34:39Martijn de Kok35:17Bart Bleyaert35:47Monique Verschuure41:1275
2016Tim Pleijte33:56Tim van den Broeke34:07Erwin Adan35:38Monique Verschuure41:5964

2.7 km
PltsNaam
Tijdkm/umin/km
1  Robbert MeeuwseAV'569.48Mse   16.531  3:38
2  Franklin van AnrooijAV'569.52Mse   16.419  3:39
3  Wouter VerstraateVZA10.16Mse   15.779  3:48
4  Matthijs van DriesscheRKHAV10.29Mse   15.453  3:53
5  Chris de SmitRKHAV10.46M35   15.046  3:59
6  Marc van AckerRKHAV10.53Mse   14.885  4:02
7  Anjolie EngelsVZA10.55V40   14.840  4:03
8  Floris HuighWielingen11.16Mse   14.379  4:10
9  Geoffrey van de VeldeZottegem11.18Mse   14.336  4:11
10  Maaike de KreekScheldesport11.33Vse   14.026  4:17
11  William van HuffelZottegem11.43Mse   13.826  4:20
12  HenkJan TielemanFlakkee11.48M45   13.729  4:22
13  Anton EngelsDynamica11.54M55   13.613  4:24
14  Pieter-Jan de BaarAV'5611.57M40   13.556  4:26
15  Ivar van de WegeScheldesport12.04Mse   13.425  4:28
16  Tessa van den BrinkScheldesport12.22Vse   13.100  4:35
17  Rien de WildeAV'5612.26M55   13.029  4:36
18  Veerle SmitsAV'5612.32MeB   12.926  4:39
19  Anneleen VercruyssenZottegem12.40Vse   12.789  4:41
20  Louise le CoqWielingen12.49MeB   12.640  4:45
21  Fien LelieRKHAV12.57MeB   12.510  4:48
22  Lynn SommeijerDynamica12.59MeB   12.478  4:49
23  Amy NiemantsverdrietRKHAV13.01MeB   12.446  4:49
24  Parel BunDynamica13.13MeB   12.257  4:54
25  Emma van MourikDelta Sport13.21Vse   12.135  4:57
26  Ronny VersluysWielingen13.31Mse   11.985  5:00
27  Kim van VosselZottegem13.40Vse   11.854  5:04
28  Veronique HersschensZottegem13.42Vse   11.825  5:04
29  Jacky LuyckWielingen14.09Mse   11.449  5:14
30  Eric van NevelKoolkerke14.13Mse   11.395  5:16
31  George SchanckWielingen14.17M35   11.342  5:17
32  Paulette de KrakerDynamica14.21Vse   11.289  5:19
33  Manon WakkerScheldesport15.02Vse   10.776  5:34
34  Angelique HarinckOost-Souburg15.45V45   10.286  5:50
35  Ronald BunMiddelburg16.06Mse   10.062  5:58
36  Jane van der VloetRKHAV16.14Vse   9.979  6:01
37  Daisy van de VeldeWielingen16.24Vse   9.878  6:04
38  Marina MolAV'5616.58V35   9.548  6:17
39  Lena de WildeVlissingen17.33V60   9.231  6:30
40  Mia van BelleDynamica18.30V65   8.757  6:51
Mannen: 19 (47.5%) => M35=2 - M40=1 - M45=1 - M55=2 - Mse=13
Vrouwen: 15 (37.5%) => V35=1 - V40=1 - V45=1 - V60=1 - V65=1 - Vse=10

Overzicht Top3, winnares en aantal deelnemers in eerdere jaren

JaarWinnaarTijd2eTijd 3eTijdWinnaresTijd#
2017Robbert Meeuwse09:48Franklin van Anrooij09:52Wouter Verstraate10:16Anjolie Engels10:5540
2016Wouter Verstraate09:52Jasper Zuidhof10:05Bart Balkenende10:15Anjolie Engels10:3834
2015Wouter Verstraate10:07Jasper Zuidhof10:09Patrick de Vos10:12Anjolie Engels10:5035
2014Wouter Verstraate10:37Sebastiaan Heikoop10:50Franklin van Anrooij11:23Shirley Kerkhove11:4829


Snelheid en tempo zijn berekend op de vermelde afstand. Bij een onjuiste afstand wijken deze uiteraard af!

Fouten melden via info@atletiekzeeland.nl Categorie fout? Mail dan geboortedatum. (geldt alleen voor Zeeuwen)

De server had 0.229 seconden nodig om deze lijst met 115 prestaties samen te stellen.

Terug naar boven

Jongens C03/04   1,80km
    naam                            geb stn club         tijd
001 Abdallah        Jamal           03 0312 Scheldesport 0:07:20
002 Maat            Ralph de        03 0111 Scheldesport 0:07:34
003 Zeeuw           Tobias de       04 0100 Scheldesport 0:07:45
004 Dikkenberg      Jesse van den   04 0156 AV'56        0:07:49
005 Wieles          Chris           03 0069 Scheldesport 0:07:57
006 Dobbelaar       Jonathan        03 0078 Scheldesport 0:08:01
007 Clercq          Rune de         03 0381 Zottegem atl 0:08:18
008 Os              Martijn van     03 0008 RKHAV        0:08:23
009 Westrate        Ben             04 0368 AV'56        0:08:32
010 Hekkers         Roan            03 0373 AV'56        0:08:35
011 Bouwhuizen      Dylan           03 0225 RKHAV        0:08:40
012 Werkman         Erik-Jan        04 0353 Wielingen    0:08:47
013 Vierbergen      Mats            03 0161 RKHAV        0:08:51
014 Noordijk        Bryan           04 0091 Scheldesport 0:08:54
015 Lokers          Duncan          04 0370 AV'56        0:09:06
016 Koens           Jovi            04 0371 AV'56        0:09:16
017 Beke            Kevin op de     04 0372 AV'56        0:09:19
018 Oele            Sven            04 0032 AV'56        0:10:14
 
Meisjes C03/04   1,80km
    naam                            geb stn club         tijd
001 Houtzager       Ruchama         03 0258 Delta Sport  0:08:00
002 Acker           Emma van        03 0150 RKHAV        0:08:03
003 Schets          Tessa           04 0329 AV'56        0:08:12
004 Verbrugge       Mette           04 0064 AV'56        0:08:18
005 Goudswaard      Ilse            03 0253 Delta Sport  0:08:21
006 Exter           Eva den         03 0314 RKHAV        0:08:31
007 Leenheer        Fleur           03 0257 Delta Sport  0:08:37
008 Baar            Sanne de        03 0035 AV'56        0:08:41
009 Nijsse          Iza             04 0376 AV'56        0:08:43
010 Baaijens        Merel           04 0379 AV'56        0:09:07
011 Lokers          Renate          04 0380 AV'56        0:11:03
012 Gelderblom      Fenna           04 0375 AV'56        0:11:05
 
Jongens D05/06   1,80km
    naam                            geb stn club         tijd
001 Deplorez        Tim             05 0363 Zottegem atl 0:07:43
002 Maat            Fabian de       06 0112 Scheldesport 0:07:47
003 Bouwhuizen      Robin           06 0224 RKHAV        0:08:12
004 Schuit          Daan            05 0236 Scheldesport 0:08:16
005 Pijnen          Benjamin        06 0108 Scheldesport 0:08:20
006 Koole           Stijn           06 0302 Dynamica     0:08:25
007 Kabbedijk       Twan            06 0386 Delta Sport  0:08:29
008 Dobbelaar       Lukas           05 0077 Scheldesport 0:08:37
009 Koopman         Kasper          06 0053 Dynamica     0:08:43
010 Vael            Luca            06 0036 Dynamica     0:08:57
011 Acker           Job van         00 0336              0:09:04
012 Swemmelaar      Quinten         05 0355 Wielingen    0:09:11
013 Verschuren      Niels           06 0084 Scheldesport 0:09:22
 
Meisjes D05/06   1,80km
    naam                            geb stn club         tijd
001 Maranus         Femke           06 0052 Dynamica     0:08:23
002 Lorier          Lisanne         05 0042 Dynamica     0:08:27
003 Keijmel         Myrthe          05 0071 Scheldesport 0:08:35
004 Kraker          Yasmine de      06 0124 Dynamica     0:08:54
005 Vierbergen      Kirsten         05 0160 RKHAV        0:09:04
006 Luijk           Zoe van         06 0045 AV'56        0:09:12
007 Exter           Ann den         06 0228 RKHAV        0:09:51
 
Jongens pA2 07   0,90km
    naam                            geb stn club         tijd
001 Joppe           Zedie           07 0118 Flakkee      0:04:00
002 Engels          Ivar            07 0059 Dynamica     0:04:14
003 Wieles          Viktor          07 0070 Scheldesport 0:04:29
004 Tieleman        Tom             07 0400 Flakkee      0:04:33
005 Zandstra        Lucas           07 0094 Scheldesport 0:04:43
006 Oele            Niels           07 0033 AV'56        0:04:45
007 Lous            Jochem          07 0062 Dynamica     0:05:24
 
Jongens pA1 08   0,90km
    naam                            geb stn club         tijd
001 Boogaard        Ezra            08 0020 Dynamica     0:04:16
002 Verbiest        Kyano           08 0086 Scheldesport 0:04:32
003 Giele           Midas           08 0072 Scheldesport 0:04:36
004 Dekker          Edwin           08 0396 Wielingen    0:04:40
005 Noordijk        Lyam            08 0090 Scheldesport 0:04:42
006 Vrieze          Jesper de       08 0359 AV'56        0:04:45
007 Beuns           Jens            08 0115 AV'56        0:04:49
008 Lensen          Quinten         08 0079 Scheldesport 0:04:58
009 Jonge           Dylano de       08 0056 Nieuwdorp    0:05:05
010 Werkman         Laurens         08 0354 Wielingen    0:05:14
011 Waeyenberghe    Milan van       08 0144 RKHAV        0:05:19
 
Meisjes pA2 07   0,90km
    naam                            geb stn club         tijd
001 Wibbelink       Felien          07 0010 Dynamica     0:04:21
002 Hamer           Benthe den      07 0102 Scheldesport 0:04:35
003 Steigerwald     Myrthe          07 0011 AV'56        0:04:49
004 Richards        Milla-Rose      07 0377 Wielingen    0:04:54
005 Peeters         Demi            07 0075 Scheldesport 0:05:00
006 Goudswaard      Lieke           07 0256 Delta Sport  0:05:05
007 Crombeen        Evita           07 0132 RKHAV        0:05:13
008 Lorier          Floor           07 0043 Dynamica     0:05:17
009 Keijzer         Shana de        07 0137 RKHAV        0:05:20
010 Hertogs         Marjan          07 0378 Wielingen    0:05:25
011 Luijk           Tess van        07 0046 AV'56        0:05:28
 
Meisjes pA1 08   0,90km
    naam                            geb stn club         tijd
001 Mol             Elise           08 0251 AV'56        0:04:52
002 Pijnen          Valerie         08 0107 Scheldesport 0:05:00
003 Zahradnik       Iris            08 0238 Scheldesport 0:05:10
004 Wilhelm         Nienke          08 0242 Scheldesport 0:05:12
005 Damme           Marit van       08 0095 Scheldesport 0:05:21
006 Buijs           Maud            08 0131 RKHAV        0:05:26
007 Weduwe          Laura der       08 0145 RKHAV        0:05:31
008 Dobbelaar       Rebekka         08 0076 Scheldesport 0:05:40
 
Jongens pB  09   0,90km
    naam                            geb stn club         tijd
001 Bareman         Daniel          09 0239 Scheldesport 0:04:30
002 Boonman         Jasper          09 0348 Dynamica     0:04:46
003 Duinkerke       Pepijn          09 0103 Scheldesport 0:04:59
004 Bouilila        Anwar           09 0328 Scheldesport 0:05:03
005 Berman          Florian         09 0313 AV'56        0:05:08
006 Dalen           Rens van        09 0346 AV'56        0:05:11
 
Jongens pC  10+  0,90km
    naam                            geb stn club         tijd
001 Luijk           Daan van        10 0047 AV'56        0:04:57
002 Waesberghe      Michael van     10 0143 RKHAV        0:05:20
003 Drongelen       Lucas           10 0235 Scheldesport 0:05:41
 
Meisjes pB  09   0,90km
    naam                            geb stn club         tijd
001 Joppe           Daphne          08 0119 Flakkee      0:04:48
002 Zandstra        Liselotte       09 0093 Scheldesport 0:04:54
003 Vloet           Sabine van der  09 0142 RKHAV        0:05:01
004 Pijnen          Victoria        09 0106 Scheldesport 0:05:21
005 Velde           Cara van de     09 0362 Zottegem atl 0:05:28
006 Schol           Jody            09 0382 Aardenburg   0:05:33
007 Rijt            Juliette van de 09 0068 Scheldesport 0:05:52
008 Hommers         Esmee           09 0087 Scheldesport 0:05:56
 
Meisjes pC  10+  0,90km
    naam                            geb stn club         tijd
001 Kraker          Aimee de        10 0125 Dynamica     0:05:49
002 Lijs            Nova de le      10 0391 Wielingen    0:06:05
003 Nobus           Caitlynn        12 0345              0:07:03
004 Peeters         Maida           11 0074 Scheldesport 0:07:08
005 Schol           Amouk           12 0402 Aardenburg   0:08:04
 
     finishers: ,6
 Reactie's o.v.v. STARTNUMMER binnen een week naar: aeromad@zeelandnet.nl

   Hse-34                                           Moe Eld Ink Del Sch Gre Kus bon tot  w
 1 Kok             Martijn de      0308 AV'56       215 241                     00 0456  2
 2 Stitan          Yunis           0222 Delta Sport 226 220                     00 0446  2
 3 Wolfert         Eric            0002 Flakkee     200 215                     00 0415  2
 4 Lelie           Michiel         0248 RKHAV       188 203                     00 0391  2
 5 Goedhart        Freek           0030 Flakkee     176 191                     00 0367  2
 6 Looij           Johan           0054 Herkingen   151 160                     00 0311  2
 7 Broeke          Tim van den     0058 Dynamica    250                         00 0250  1
 8 Vercauteren     Sander          0315 Sint Pauwels241                         00 0241  1
 9 Cappaert        Frederic        0213 ac Waasland 233                         00 0233  1
10 Bouwman         David           0009 PAC             226                     00 0226  1
11 Feijter         Job de          0121 RKHAV       211                         00 0211  1
12 Vos             Patrick de      0219 AV'56       207                         00 0207  1
13 Nevel           Angelo van      0406 Zedelgem        207                     00 0207  1
14 Mey             Liam de         0342 RKHAV       197                         00 0197  1
15 Messagie        Tim             0339 Waasland    191                         00 0191  1
16 Roelse          Jan-Willem      0057 Gonzales RT 184                         00 0184  1
17 Fresonie        Ronny           0403 Sluis           176                     00 0176  1
18 Nooijer         Bas de          0392 Gonzales RT     168                     00 0168  1

   starts  24
 
   H35-44                                           Moe Eld Ink Del Sch Gre Kus bon tot  w
 1 Hamer           Michael de      0101 Scheldesport174 197                     00 0371  2
 2 Slock           Endy            0088 Scheldesport170 184                     00 0354  2
 3 Hoosemans       Martijn         0158 Dynamica    157 178                     00 0335  2
 4 Wieland         Niek            0338 Axel        149 153                     00 0302  2
 5 Steketee        Maurice         0026 Middelburg  145 151                     00 0296  2
 6 Petegem         Patrick van     0365 Zottegem atl    250                     00 0250  1
 7 Bleyaert        Bart            0407 JC Aalter       233                     00 0233  1
 8 Harmes          Erwin           0247 Gonzales RT 220                         00 0220  1
 9 Vercammen       Yves            0214 ac Waasland 203                         00 0203  1
10 Bruijn          Boris de        0060 AV'56       186                         00 0186  1
11 Clerck          Simon de        0344 Wielingen   172                         00 0172  1
12 Karelse         Johan           0306 AV'56       166                         00 0166  1
13 Boxstael        Bjorn van       0367 Zottegem atl    166                     00 0166  1
14 Smit            Chris de        0232 RKHAV       163                         00 0163  1
15 Voorde          Danny van de    0323 Volharding  159                         00 0159  1
16 Verhaeghe       Bart            0037 Kapelle     156                         00 0156  1
17 Kerkhove        Robert vd       0405                 156                     00 0156  1
18 Woestijne       Rinus van de    0123 Dynamica    142                         00 0142  1
19 Mahu            Nico            0244 Stekene     134                         00 0134  1
20 Boekhout        Paz             0394 Sint Kruis      134                     00 0134  1

   starts  25
 
   H45-54                                           Moe Eld Ink Del Sch Gre Kus bon tot  w
 1 Verhage         Arjo            0040 Dynamica    182 200                     00 0382  2
 2 Mourik          Piet van        0022 Delta Sport 164 188                     00 0352  2
 3 Alphen          Edwin van       0013 Dynamica    160 182                     00 0342  2
 4 Wieles          Adriaan         0080 Scheldesport155 174                     00 0329  2
 5 Platteeuw       Albert          0073 Scheldesport152 163                     00 0315  2
 6 Zeeuw           Alwin de        0099 Scheldesport153 161                     00 0314  2
 7 Sommeijer       Marcel          0061 Dynamica    154 157                     00 0311  2
 8 Maat            Harold de       0110 Scheldesport141 152                     00 0293  2
 9 Jonge           William de      0055 Nieuwdorp   144 146                     00 0290  2
10 Heijden         Kees van der    0023 Dynamica    139 145                     00 0284  2
11 Hogervorst      Rudie           0154 Wielingen   131 141                     00 0272  2
12 Kreek           Jos de          0233 Scheldesport133 139                     00 0272  2
13 Lievense        Hans            0340 Middelburg  126 135                     00 0261  2
14 Plume           Christian       0366 Zottegem atl    186                     00 0186  1
15 Vos             Wilko de        0034 AV'56       180                         00 0180  1
16 Balkenende      Peter           0305 AV'56       178                         00 0178  1
17 Velde           Herman vd       0352 Zottegem atl    170                     00 0170  1
18 Jaeger          Edwin de        0310 RKHAV       168                         00 0168  1
19 Slits           Peter           0398 Sluis           164                     00 0164  1
20 Broecke         Francois v d    0051 Wielingen       162                     00 0162  1
21 Bruggeman       Rini            0122 AV'56       158                         00 0158  1
22 Boevere         Patrick de      0401 Wielingen       158                     00 0158  1
23 Vercauteren     Ivan            0215 ac Waasland 150                         00 0150  1
24 Murre           Walther         0240 Scheldesport    150                     00 0150  1
25 Compiet         John            0317 RKHAV       146                         00 0146  1
26 Franken         Wilco           0316 RKHAV       138                         00 0138  1
27 Goetheer        Rene            0117 Wolphaartsdi132                         00 0132  1

   starts  40
 
   H55-64                                           Moe Eld Ink Del Sch Gre Kus bon tot  w
 1 Branden         Frank van den   0120 RKHAV       162 180                     00 0342  2
 2 Meeuwse         Jan-Willem      0025 AV'56       161 172                     00 0333  2
 3 Lous            Henk            0029 Dynamica    147 159                     00 0306  2
 4 Zaman           Jacques         0241 Scheldesport148 155                     00 0303  2
 5 Knibbeler       Berry           0109 Scheldesport143 144                     00 0287  2
 6 Dellebeke       Ron             0128 Dynamica    135 142                     00 0277  2
 7 Leng            Edward de       0397 Dynamica        194                     00 0194  1
 8 Dooms           Johnny          0404                 149                     00 0149  1
 9 Timmermans      Twan            0357 Hoofdplaat      148                     00 0148  1
10 Blaauw          Ebe             0387 Scheldesport    147                     00 0147  1
11 Klaasse         Leo             0252 AVVNSpijkeni140                         00 0140  1

   starts  17
 
   H65+                                             Moe Eld Ink Del Sch Gre Kus bon tot  w
 1 Cornelisse      Siem            0249 Dynamica    137 143                     00 0280  2
 2 Louws           Dave            0024 Dynamica    129 138                     00 0267  2
 3 Beijer          Piet            0018 Dynamica    128 136                     00 0264  2
 4 Jonge           Wim de          0347 AV'56           154                     00 0154  1
 5 Hoeve           Jan van         0383 Wielingen       140                     00 0140  1
 6 Guequierre      John            0015 Dynamica        137                     00 0137  1
 7 Bunder          Albregt         0337 Walo        136                         00 0136  1
 8 Botman          Kobus           0014 Dynamica        133                     00 0133  1
 9 Stijns          Arthur          0031 Dynamica        132                     00 0132  1
10 Wit             Ed de           0246 AVVNHellevoe130                         00 0130  1
11 Bras            Gerard          0017 Dynamica    127                         00 0127  1

   starts  14
 
   JA 99/00                                         Moe Eld Ink Del Sch Gre Kus bon tot  w
 1 Harinck         Sergio          0230 Gonzales RT 194 211                     00 0405  2

   starts  2
 
   Vse-34                                           Moe Eld Ink Del Sch Gre Kus bon tot  w
 1 Reus            Renate de       0006 Dynamica    215 215                     00 0430  2
 2 Desaunois       Eline           0211 ac Waasland 226                         00 0226  1
 3 Platteeuw       Esther          0388 Scheldesport    226                     00 0226  1
 4 Geertsom        Katrien van     0212 ac Waasland 220                         00 0220  1
 5 Leijnse-Prenger Roely           0227 Dynamica    203                         00 0203  1
 6 Booij           Inge de         0389 Scheldesport    203                     00 0203  1
 7 Nobus           Monique         0349                 200                     00 0200  1
 8 Rasenberg       Ingrid          0358 Delta Sport     184                     00 0184  1

   starts  9
 
   V35-44                                           Moe Eld Ink Del Sch Gre Kus bon tot  w
 1 Verschuure      Monique         0250 AV'56       250 250                     00 0500  2
 2 Sanderse        Monica          0004 Dynamica    233 233                     00 0466  2
 3 Meijboom        Durby           0152 Vlissingen  207 211                     00 0418  2
 4 Lievense        Corina          0341 Middelburg  182 186                     00 0368  2
 5 Gilst           Paola van       0350 AV'56           220                     00 0220  1
 6 Overmeire       Saskia          0260 Volharding  188                         00 0188  1
 7 Heppener        Mandy           0390 Scheldesport    182                     00 0182  1

   starts  11
 
   V45-54                                           Moe Eld Ink Del Sch Gre Kus bon tot  w
 1 Versluys        Frederique      0153 Wielingen   241 241                     00 0482  2
 2 Booij           Natasja         0082 Scheldesport211 207                     00 0418  2
 3 Allefs          Monique         0343 RKHAV       197 194                     00 0391  2
 4 Hamelinck       Marjan          0218 RKHAV       186                         00 0186  1
 5 Balkenende      Christine       0304 AV'56       184                         00 0184  1

   starts  8
 
   V55+                                             Moe Eld Ink Del Sch Gre Kus bon tot  w
 1 Flikweert       Rian            0021 Dynamica    200 197                     00 0397  2
 2 Vries           Jannie de       0157 Dynamica    191 191                     00 0382  2
 3 Gelok           Els             0226 Dynamica    194                         00 0194  1
 4 Tempelaar       Ineke           0311 Dynamica        188                     00 0188  1
 5 Meeuwse         Helma           0027 AV'56       180                         00 0180  1

   starts  7
 
   MA99/00                                          Moe Eld Ink Del Sch Gre Kus bon tot  w
 1 Zeeuw           Mirthe de       0098 Scheldesport250 250                     00 0500  2

   starts  2
 
   JB01/02                                          Moe Eld Ink Del Sch Gre Kus bon tot  w
 1 Zeeuw           Nathan de       0097 Scheldesport241 241                     00 0482  2
 2 Dillis          Elyas           0307 RKHAV       215 226                     00 0441  2
 3 Schets          Wouter          0330 AV'56       250                         00 0250  1
 4 Lievens         Lucas           0351 Zottegem atl    250                     00 0250  1
 5 Kruisifikx      Thomas          0085 Scheldesport233                         00 0233  1
 6 Tuil            Niels van       0393 AV'56           233                     00 0233  1
 7 Roos            Matthijs        0243 AV'56       226                         00 0226  1
 8 Verbrugge       Mees            0065 AV'56       220                         00 0220  1

   starts  10
 
   MB01/02                                          Moe Eld Ink Del Sch Gre Kus bon tot  w
 1 Smits           Veerle          0984 AV'56       250 250                     00 0500  2
 2 Lelie           Fien            0966 RKHAV       226 233                     00 0459  2
 3 Sommeijer       Lynn            0987 Dynamica    215 226                     00 0441  2
 4 Niemantsverdrie Amy             0980 RKHAV       220 220                     00 0440  2
 5 Bun             Parel           0976 Dynamica    211 215                     00 0426  2
 6 Coq             Louise le       0941 Wielingen       241                     00 0241  1
 7 Lokeren         Cloe van        0978 ac Waasland 241                         00 0241  1
 8 Geldof          Jasmijn         0982 AV'56       233                         00 0233  1

   starts  13
 
   Hkcr+JA                                          Moe Eld Ink Del Sch Gre Kus bon tot  w
 1 Driessche       Matthijs van    0996 RKHAV       226 226                     00 0452  2
 2 Acker           Marc van        0981 RKHAV       220 215                     00 0435  2
 3 Tieleman        HenkJan         0954 Flakkee     207 200                     00 0407  2
 4 Engels          Anton           0989 Dynamica    203 197                     00 0400  2
 5 Baar            Pieter-Jan de   0994 AV'56       200 194                     00 0394  2
 6 Wege            Ivar van de     0958 Scheldesport191 191                     00 0382  2
 7 Wilde           Rien de         0967 AV'56       194 188                     00 0382  2
 8 Versluys        Ronny           0957 Wielingen   188 186                     00 0374  2
 9 Schanck         George          0995 Wielingen   184 180                     00 0364  2
10 Bun             Ronald          0977 Middelburg  182 178                     00 0360  2
11 Meeuwse         Robbert         0949 TRI-X-Kufste    250                     00 0250  1
12 Vercauteren     Sander          0961 Sint-Pauwels250                         00 0250  1
13 Anrooij         Franklin van    0950 AV'56           241                     00 0241  1
14 Leng            Paavo de        0993 Dynamica    241                         00 0241  1
15 Verstraaten     Wouter          0938 VZA             233                     00 0233  1
16 Govaert         Arno            0956 Waasland    233                         00 0233  1
17 Smit            Chris de        0940 RKHAV           220                     00 0220  1
18 Kapteijn        Stef            0992 AV'56       215                         00 0215  1
19 Huigh           Floris          0947 Wielingen       211                     00 0211  1
20 Iterbeke        Lander          0955 Waasland    211                         00 0211  1
21 Velde           Geoffrey vd     0944 Zottegem atl    207                     00 0207  1
22 Huffel          William van     0943 Zottegem atl    203                     00 0203  1
23 Dees            Danmar          0959 AV'56       197                         00 0197  1
24 Kluskens        Gert            0962 Volharding  186                         00 0186  1
25 Luyck           Jacky           0877 Wielingen       184                     00 0184  1
26 Nevel           Eric van        0876 Koolkerke       182                     00 0182  1

   starts  36
 
   Vkcr+MA                                          Moe Eld Ink Del Sch Gre Kus bon tot  w
 1 Kreek           Maaike de       0986 Scheldesport241 241                     00 0482  2
 2 Mourik          Emma van        0997 Delta Sport 233 220                     00 0453  2
 3 Kraker          Paulette de     0983 Dynamica    211 207                     00 0418  2
 4 Wakker          Manon           0968 Scheldesport197 203                     00 0400  2
 5 Vloet           Jane van der    0960 RKHAV       188 197                     00 0385  2
 6 Harinck         Angelique       0965 Souburg     184 200                     00 0384  2
 7 Wilde           Lena de         0979 avvn Vlissin182 188                     00 0370  2
 8 Mol             Marina          0972 AV'56       178 191                     00 0369  2
 9 Belle           Mia van         0970 Dynamica    176 186                     00 0362  2
10 Aper            Aniek           0975 Rotterdam At250                         00 0250  1
11 Engels          Anjolie         0988 VZA             250                     00 0250  1
12 Brink           Tessa van den   0939 Scheldesport    233                     00 0233  1
13 Vercruyssen     Anneleen        0946 Zottegem atl    226                     00 0226  1
14 Campenhout      Veerle van      0953 RKHAV       226                         00 0226  1
15 Heyndrickx      Cindy           0963 Volharding  220                         00 0220  1
16 Vossel          Kim van         0945 Zottegem atl    215                     00 0215  1
17 Steenblok       Marian          0971 AV'56       215                         00 0215  1
18 Hersschens      Veronique       0952 Zottegem atl    211                     00 0211  1
19 Sluijs          Esther van      0999 AV'56       207                         00 0207  1
20 Jong            Jolanda 't      0973 Delta Sport 203                         00 0203  1
21 Adriaenssens    Kathleen        0985 Volharding  200                         00 0200  1
22 Velde           Daisy van de    0942 Wielingen       194                     00 0194  1
23 Rasenberg       Ingrid          0974 Delta Sport 194                         00 0194  1
24 Heppener        Mandy           0969 Scheldesport191                         00 0191  1
25 Simonse         Marielle        0991 AV'56       186                         00 0186  1
26 Kleven          Lenie van       0990 AVVN Vlissin180                         00 0180  1

   starts  35
 
   JC03/04                                          Moe Eld Ink Del Sch Gre Kus bon tot  w
 1 Abdallah        Jamal           0312 Scheldesport250 250                     00 0500  2
 2 Maat            Ralph de        0111 Scheldesport241 241                     00 0482  2
 3 Wieles          Chris           0069 Scheldesport233 220                     00 0453  2
 4 Zeeuw           Tobias de       0100 Scheldesport220 233                     00 0453  2
 5 Dikkenberg      Jesse van den   0156 AV'56       226 226                     00 0452  2
 6 Dobbelaar       Jonathan        0078 Scheldesport207 215                     00 0422  2
 7 Os              Martijn van     0008 RKHAV       211 207                     00 0418  2
 8 Bouwhuizen      Dylan           0225 RKHAV       203 197                     00 0400  2
 9 Vierbergen      Mats            0161 RKHAV       197 191                     00 0388  2
10 Noordijk        Bryan           0091 Scheldesport194 188                     00 0382  2
11 Oele            Sven            0032 AV'56       191 180                     00 0371  2
12 Dees            Tom             0331 AV'56       215                         00 0215  1
13 Clercq          Rune de         0381 Zottegem atl    211                     00 0211  1
14 Westrate        Ben             0368 AV'56           203                     00 0203  1
15 Hiel            Karsten         0147 RKHAV       200                         00 0200  1
16 Hekkers         Roan            0373 AV'56           200                     00 0200  1
17 Werkman         Erik-Jan        0353 Wielingen       194                     00 0194  1
18 Lokers          Duncan          0370 AV'56           186                     00 0186  1
19 Koens           Jovi            0371 AV'56           184                     00 0184  1
20 Beke            Kevin op de     0372 AV'56           182                     00 0182  1

   starts  31
 
   MC03/04                                          Moe Eld Ink Del Sch Gre Kus bon tot  w
 1 Houtzager       Ruchama         0258 Delta Sport 233 250                     00 0483  2
 2 Schets          Tessa           0329 AV'56       250 233                     00 0483  2
 3 Acker           Emma van        0150 RKHAV       241 241                     00 0482  2
 4 Goudswaard      Ilse            0253 Delta Sport 215 220                     00 0435  2
 5 Exter           Eva den         0314 RKHAV       220 215                     00 0435  2
 6 Baar            Sanne de        0035 AV'56       211 207                     00 0418  2
 7 Leenheer        Fleur           0257 Delta Sport 207 211                     00 0418  2
 8 Kapteijn        Lisa            0049 AV'56       226                         00 0226  1
 9 Verbrugge       Mette           0064 AV'56           226                     00 0226  1
10 Nijsse          Iza             0376 AV'56           203                     00 0203  1
11 Baaijens        Merel           0379 AV'56           200                     00 0200  1
12 Lokers          Renate          0380 AV'56           197                     00 0197  1
13 Gelderblom      Fenna           0375 AV'56           194                     00 0194  1

   starts  20
 
   JD05/06                                          Moe Eld Ink Del Sch Gre Kus bon tot  w
 1 Maat            Fabian de       0112 Scheldesport215 241                     00 0456  2
 2 Bouwhuizen      Robin           0224 RKHAV       197 233                     00 0430  2
 3 Koole           Stijn           0302 Dynamica    200 215                     00 0415  2
 4 Schuit          Daan            0236 Scheldesport186 226                     00 0412  2
 5 Pijnen          Benjamin        0108 Scheldesport191 220                     00 0411  2
 6 Dobbelaar       Lukas           0077 Scheldesport180 207                     00 0387  2
 7 Vael            Luca            0036 Dynamica    182 200                     00 0382  2
 8 Koopman         Kasper          0053 Dynamica    170 203                     00 0373  2
 9 Acker           Job van         0336             176 197                     00 0373  2
10 Verschuren      Niels           0084 Scheldesport174 191                     00 0365  2
11 Rooms           Jentho          0207 ac Waasland 250                         00 0250  1
12 Deplorez        Tim             0363 Zottegem atl    250                     00 0250  1
13 Pauwels         Milan           0208 ac Waasland 241                         00 0241  1
14 Verbrugge       Ipe             0066 AV'56       233                         00 0233  1
15 Sven            Anne            0205 ac Waasland 226                         00 0226  1
16 Bosscher        Thomas de       0209 ac Waasland 220                         00 0220  1
17 Bonten          Victor          0210 ac Waasland 211                         00 0211  1
18 Kabbedijk       Twan            0386 Delta Sport     211                     00 0211  1
19 Cloodt          Niels van de    0206 ac Waasland 207                         00 0207  1
20 Steenblok       Koen            0114 AV'56       203                         00 0203  1
21 Noppe           Siebe           0268 Volharding  194                         00 0194  1
22 Swemmelaar      Quinten         0355 Wielingen       194                     00 0194  1
23 Marin           Vince           0269 Volharding  188                         00 0188  1
24 Kapteijn        Mart            0048 AV'56       184                         00 0184  1
25 Verhoeven       Alessandro      0265 Volharding  178                         00 0178  1
26 Laeremans       Rune            0270 Volharding  172                         00 0172  1
27 Berg            Nino van den    0038 AV'56       168                         00 0168  1
28 Dees            Rody            0028 AV'56       166                         00 0166  1

   starts  38
 
   MD05/06                                          Moe Eld Ink Del Sch Gre Kus bon tot  w
 1 Maranus         Femke           0052 Dynamica    226 250                     00 0476  2
 2 Lorier          Lisanne         0042 Dynamica    215 241                     00 0456  2
 3 Keijmel         Myrthe          0071 Scheldesport203 233                     00 0436  2
 4 Kraker          Yasmine de      0124 Dynamica    194 226                     00 0420  2
 5 Vierbergen      Kirsten         0160 RKHAV       180 220                     00 0400  2
 6 Exter           Ann den         0228 RKHAV       166 211                     00 0377  2
 7 Luijk           Zoe van         0045 AV'56       159 215                     00 0374  2
 8 Graaf           Amy de          0151 AV'56       250                         00 0250  1
 9 Dejonghe        Helena          0196 ac Waasland 241                         00 0241  1
10 Penneman        Charlotte       0200 ac Waasland 233                         00 0233  1
11 Vercammen       Kaat            0199 ac Waasland 220                         00 0220  1
12 Poucke          Fran van        0194 ac Waasland 211                         00 0211  1
13 Wauters         Lize            0266 Volharding  207                         00 0207  1
14 Loir            Elise           0195 ac Waasland 200                         00 0200  1
15 Duhoux          Dorien          0267 Volharding  197                         00 0197  1
16 Vermeulen       Nele            0201 ac Waasland 191                         00 0191  1
17 Thierens        Louise          0261 Volharding  188                         00 0188  1
18 Blancaert       Femke           0263 Volharding  186                         00 0186  1
19 Baekelant       Joke            0264 Volharding  184                         00 0184  1
20 Voorde          Kyra van de     0159 Dynamica    182                         00 0182  1
21 Simonse         Marit           0050 AV'56       178                         00 0178  1
22 Martens         Kaat            0262 Volharding  176                         00 0176  1
23 Caluwe          Febe de         0202 ac Waasland 174                         00 0174  1
24 Geboes          Kaat            0204 ac Waasland 172                         00 0172  1
25 Karelse         Yara            0127 AV'56       170                         00 0170  1
26 Wilde           Zita de         0325 Volharding  168                         00 0168  1
27 Elias           Alexandra       0303 RKHAV       164                         00 0164  1
28 Sierens         Lore            0198 ac Waasland 163                         00 0163  1
29 Buyse           Lotte           0335 Waasland    162                         00 0162  1
30 Elstgeest       Lotte           0044 AV'56       161                         00 0161  1
31 Dikkenberg      Inke van den    0155 AV'56       160                         00 0160  1
32 Sluijs          Femke van       0012 AV'56       158                         00 0158  1
33 Kefayetou       Osratin         0203 ac Waasland 157                         00 0157  1
34 Seters          Sophie van      0149 Flakkee     156                         00 0156  1

   starts  41
 
   JpA2 07                                          Moe Eld Ink Del Sch Gre Kus bon tot  w
 1 Joppe           Zedie           0118 Flakkee     241 250                     00 0491  2
 2 Engels          Ivar            0059 Dynamica    226 241                     00 0467  2
 3 Wieles          Viktor          0070 Scheldesport200 233                     00 0433  2
 4 Zandstra        Lucas           0094 Scheldesport191 220                     00 0411  2
 5 Oele            Niels           0033 AV'56       184 215                     00 0399  2
 6 Lous            Jochem          0062 Dynamica    176 211                     00 0387  2
 7 Hooste          Tijn van        0192 ac Waasland 250                         00 0250  1
 8 Schletterer     Julius          0129 Dynamica    233                         00 0233  1
 9 Tieleman        Tom             0400 Flakkee         226                     00 0226  1
10 Ton             Luca            0126 Dynamica    220                         00 0220  1
11 Pauwels         Lars            0190 ac Waasland 215                         00 0215  1
12 Bonten          Jasper          0191 ac Waasland 211                         00 0211  1
13 Vermeersch      Cedric          0273 Volharding  207                         00 0207  1
14 Vlieger         Milan de        0333             203                         00 0203  1
15 Willemse        Bram            0216 Dynamica    197                         00 0197  1
16 Laet            Joachim de      0277 Volharding  194                         00 0194  1
17 ParanaVithanage Samil           0063 AV'56       188                         00 0188  1
18 Kwikkelberghe   Jens van        0245 Scheldesport186                         00 0186  1
19 Weert           Leander de      0116 RKHAV       182                         00 0182  1
20 Kusters         Lukas           0274 Volharding  180                         00 0180  1
21 Geldof          Thibe           0275 Volharding  178                         00 0178  1
22 Waele           Wout de         0276 Volharding  174                         00 0174  1

   starts  28
 
   JpA1 08                                          Moe Eld Ink Del Sch Gre Kus bon tot  w
 1 Boogaard        Ezra            0020 Dynamica    233 250                     00 0483  2
 2 Verbiest        Kyano           0086 Scheldesport215 241                     00 0456  2
 3 Giele           Midas           0072 Scheldesport203 233                     00 0436  2
 4 Noordijk        Lyam            0090 Scheldesport194 220                     00 0414  2
 5 Beuns           Jens            0115 AV'56       200 211                     00 0411  2
 6 Lensen          Quinten         0079 Scheldesport172 207                     00 0379  2
 7 Jonge           Dylano de       0056 Nieuwdorp   174 203                     00 0377  2
 8 Waeyenberghe    Milan van       0144 RKHAV       168 197                     00 0365  2
 9 Riel            Senne van       0285 Volharding  250                         00 0250  1
10 Zutter          Rune de         0290 Volharding  241                         00 0241  1
11 Overmeire       Merijn          0189 ac Waasland 226                         00 0226  1
12 Dekker          Edwin           0396 Wielingen       226                     00 0226  1
13 Bogaert         Arne van        0286 Volharding  220                         00 0220  1
14 Vrieze          Jesper de       0359 AV'56           215                     00 0215  1
15 Paelinck        Lode            0289 Volharding  211                         00 0211  1
16 Verstraeten     Bas             0284 Volharding  207                         00 0207  1
17 Werkman         Laurens         0354 Wielingen       200                     00 0200  1
18 Sierens         Kobe            0187 ac Waasland 197                         00 0197  1
19 Rummens         Bram            0287 Volharding  191                         00 0191  1
20 Berg            Matz van den    0326 Goes        188                         00 0188  1
21 Raaymakers      Robbe           0288 Volharding  186                         00 0186  1
22 Pauwels         Seppo           0188 ac Waasland 184                         00 0184  1
23 Poorten         Sven van        0141 RKHAV       182                         00 0182  1
24 Bouilila        Imran           0327 Scheldesport180                         00 0180  1
25 Loof            Justin          0089 Scheldesport178                         00 0178  1
26 Roelse          Micha           0334 Scheldesport176                         00 0176  1
27 Ranshuijsen     Marvin          0255 Delta Sport 170                         00 0170  1
28 Waele           Lars de         0291 Volharding  166                         00 0166  1
29 Bisschops       Luuk            0234 Scheldesport164                         00 0164  1

   starts  37
 
   MpA2 07                                          Moe Eld Ink Del Sch Gre Kus bon tot  w
 1 Wibbelink       Felien          0010 Dynamica    250 250                     00 0500  2
 2 Hamer           Benthe den      0102 Scheldesport211 241                     00 0452  2
 3 Steigerwald     Myrthe          0011 AV'56       215 233                     00 0448  2
 4 Peeters         Demi            0075 Scheldesport186 220                     00 0406  2
 5 Goudswaard      Lieke           0256 Delta Sport 191 215                     00 0406  2
 6 Crombeen        Evita           0132 RKHAV       184 211                     00 0395  2
 7 Lorier          Floor           0043 Dynamica    180 207                     00 0387  2
 8 Keijzer         Shana de        0137 RKHAV       178 203                     00 0381  2
 9 Luijk           Tess van        0046 AV'56       182 197                     00 0379  2
10 Lokeren         Phebe van       0184 ac Waasland 241                         00 0241  1
11 Bosscher        Elise           0183 ac Waasland 233                         00 0233  1
12 Wauman          Louka           0182 ac Waasland 226                         00 0226  1
13 Richards        Milla-Rose      0377 Wielingen       226                     00 0226  1
14 Geus            Brigitte de     0007 AV'56       220                         00 0220  1
15 Thoen           Alexe           0324 Volharding  207                         00 0207  1
16 Witte           Quinty de       0146 RKHAV       203                         00 0203  1
17 Sutter          Emma de         0186 ac Waasland 200                         00 0200  1
18 Hertogs         Marjan          0378 Wielingen       200                     00 0200  1
19 Lekhli          Nour Cioua      0185 ac Waasland 197                         00 0197  1
20 Lagaert         Julie           0272 Volharding  194                         00 0194  1
21 Mees            Vegas           0271 Volharding  188                         00 0188  1

   starts  30
 
   MpA1 08                                          Moe Eld Ink Del Sch Gre Kus bon tot  w
 1 Pijnen          Valerie         0107 Scheldesport233 241                     00 0474  2
 2 Mol             Elise           0251 AV'56       215 250                     00 0465  2
 3 Zahradnik       Iris            0238 Scheldesport207 233                     00 0440  2
 4 Buijs           Maud            0131 RKHAV       211 215                     00 0426  2
 5 Wilhelm         Nienke          0242 Scheldesport197 226                     00 0423  2
 6 Damme           Marit van       0095 Scheldesport188 220                     00 0408  2
 7 Weduwe          Laura der       0145 RKHAV       186 211                     00 0397  2
 8 Dobbelaar       Rebekka         0076 Scheldesport182 207                     00 0389  2
 9 Casserie        Ella van de     0217 Volharding  250                         00 0250  1
10 Vercauteren     Violetta        0181 ac Waasland 241                         00 0241  1
11 Cock            Renske de       0321 Volharding  226                         00 0226  1
12 Muyldermans     Talitha         0179 ac Waasland 220                         00 0220  1
13 Waele           Lotte de        0282 Volharding  203                         00 0203  1
14 Lenjou          Fleur           0280 Volharding  200                         00 0200  1
15 Maes            Ileana          0279 Volharding  194                         00 0194  1
16 Lagaert         Eline           0281 Volharding  191                         00 0191  1
17 Puymbroeck      Chelsy          0278 Volharding  184                         00 0184  1

   starts  25
 
   JpB  09                                          Moe Eld Ink Del Sch Gre Kus bon tot  w
 1 Bareman         Daniel          0239 Scheldesport233 250                     00 0483  2
 2 Duinkerke       Pepijn          0103 Scheldesport200 233                     00 0433  2
 3 Bouilila        Anwar           0328 Scheldesport197 226                     00 0423  2
 4 Berman          Florian         0313 AV'56       176 220                     00 0396  2
 5 Rooms           Jorden          0170 ac Waasland 250                         00 0250  1
 6 Verellen        Emiel           0319 ac Waasland 241                         00 0241  1
 7 Boonman         Jasper          0348 Dynamica        241                     00 0241  1
 8 Lekhli          Hesa Chioua     0175 ac Waasland 226                         00 0226  1
 9 Herremans       Sebastian       0174 ac Waasland 220                         00 0220  1
10 Vydt            Jules           0172 ac Waasland 215                         00 0215  1
11 Dalen           Rens van        0346 AV'56           215                     00 0215  1
12 Grave           Devlin de       0135 RKHAV       211                         00 0211  1
13 Dejonghe        Korneel         0173 ac Waasland 207                         00 0207  1
14 Vegt            Thijs van der   0254 Delta Sport 203                         00 0203  1
15 Potter          Nilo de         0229 Volharding  194                         00 0194  1
16 Creve           Emiel           0177 ac Waasland 191                         00 0191  1
17 Thierens        Emile           0294 Volharding  188                         00 0188  1
18 Heijens         Maxim           0220 RKHAV       186                         00 0186  1
19 Voorde          Greg van de     0293 Volharding  184                         00 0184  1
20 Burgelman       Siebe           0296 Volharding  182                         00 0182  1
21 Tuller          Sven            0105 Scheldesport180                         00 0180  1
22 Rombaut         Arne            0178 ac Waasland 178                         00 0178  1
23 Vlieger         Mats de         0332             174                         00 0174  1
24 Vercauteren     Lion            0171 ac Waasland 172                         00 0172  1
25 Loon            Thomas van      0322 Volharding  170                         00 0170  1
26 MartensSpanhove Emile           0295 Volharding  168                         00 0168  1

   starts  30
 
   JpC  10+                                         Moe Eld Ink Del Sch Gre Kus bon tot  w
 1 Luijk           Daan van        0047 AV'56       211 250                     00 0461  2
 2 Waesberghe      Michael van     0143 RKHAV       200 241                     00 0441  2
 3 Drongelen       Lucas           0235 Scheldesport188 233                     00 0421  2
 4 Buysse          Lucas           0167 ac Waasland 250                         00 0250  1
 5 Bogaert         Anse van        0298 Volharding  241                         00 0241  1
 6 Sierens         Vic             0165 ac Waasland 233                         00 0233  1
 7 Zutter          Dries de        0301 Volharding  226                         00 0226  1
 8 Devon           Marin           0300 Volharding  220                         00 0220  1
 9 Muyldermans     Liano           0168 ac Waasland 215                         00 0215  1
10 Overmeire       Thimen          0169 ac Waasland 207                         00 0207  1
11 Vos             Gerben de       0067 RKHAV       203                         00 0203  1
12 Paelinck        Lucas           0299 Volharding  197                         00 0197  1
13 Voorde          Sepp van de     0297 Volharding  194                         00 0194  1
14 Poorten         Mike van        0140 RKHAV       191                         00 0191  1
15 Thomaes         Remco           0166 ac Waasland 186                         00 0186  1
16 Overbeeke       Kiron           0223 Scheldesport184                         00 0184  1

   starts  19
 
   MpB  09                                          Moe Eld Ink Del Sch Gre Kus bon tot  w
 1 Vloet           Sabine van der  0142 RKHAV       241 233                     00 0474  2
 2 Joppe           Daphne          0119 Flakkee     220 250                     00 0470  2
 3 Zandstra        Liselotte       0093 Scheldesport226 241                     00 0467  2
 4 Pijnen          Victoria        0106 Scheldesport207 226                     00 0433  2
 5 Rijt            Juliette van de 0068 Scheldesport197 211                     00 0408  2
 6 Hommers         Esmee           0087 Scheldesport200 207                     00 0407  2
 7 Vercammen       Lies            0164 ac Waasland 250                         00 0250  1
 8 Wouters         Stien           0292 Volharding  233                         00 0233  1
 9 Velde           Cara van de     0362 Zottegem atl    220                     00 0220  1
10 Vermaelen       Sara            0081 Scheldesport215                         00 0215  1
11 Schol           Jody            0382 Aardenburg      215                     00 0215  1
12 Koppen          Anouk           0320 Waasland    211                         00 0211  1
13 Niemeijer       Esmee           0016 Scheldesport203                         00 0203  1
14 Reyns           Marie           0318 Volharding  194                         00 0194  1
15 Lafertin        Dianthe         0083 Scheldesport191                         00 0191  1

   starts  21
 
   MpC  10+                                         Moe Eld Ink Del Sch Gre Kus bon tot  w
 1 Kraker          Aimee de        0125 Dynamica    241 250                     00 0491  2
 2 Peeters         Maida           0074 Scheldesport220 226                     00 0446  2
 3 Schepper        Elize de        0163 ac Waasland 250                         00 0250  1
 4 Lijs            Nova de le      0391 Wielingen       241                     00 0241  1
 5 Rooms           Amber           0162 ac Waasland 233                         00 0233  1
 6 Nobus           Caitlynn        0345                 233                     00 0233  1
 7 Schuit          Senna           0237 Scheldesport226                         00 0226  1
 8 Schol           Amouk           0402 Aardenburg      220                     00 0220  1
 9 Tuller          Evi-Marlene     0104 Scheldesport215                         00 0215  1

   starts  11
   totaal  584 starts
Vorige uitslagen
DatumWedstrijdPlaatsVereniging Hits
26-11-2016 31e ElderschanscrossAardenburgWielingen1272
28-11-2015 30e ElderschanscrossAardenburgWielingen1345
22-11-2014 29e ElderschanscrossAardenburgWielingen1887
19-10-2013 28e ElderschanscrossAardenburgWielingen2220
24-11-2012 27e ElderschanscrossAardenburgWielingen1981
26-11-2011 26e ElderschanscrossAardenburgWielingen1791
27-11-2010 26e ElderschanscrossAardenburgWielingen1900
28-11-2009 25e ElderschanscrossAardenburgWielingen1526
29-11-2008 24e ElderschanscrossAardenburgWielingen996
01-12-2007 23e ElderschanscrossAardenburgWielingen1254
02-12-2006 22e ElderschanscrossAardenburgWielingen1235
03-12-2005 21e ElderschanscrossAardenburgWielingen919
04-12-2004 20e ElderschanscrossAardenburgWielingen872
29-11-2003 19e ElderschanscrossAardenburgWielingen834
30-11-2002 18e ElderschanscrossAardenburgWielingen765
01-12-2001 17e ElderschanscrossAardenburgWielingen824
02-12-2000 16e ElderschanscrossAardenburgWielingen887
04-12-1999 15e ElderschanscrossAardenburgWielingen821
19-12-1998 14e ElderschanscrossAardenburgWielingen821
06-12-1997 13e ElderschanscrossAardenburgWielingen753

 
Recente Zeeuwse prestaties meer prestaties
26-11: Halve Marathon Tarragona (1)
26-11: Firenze Marathon Florence (4)
19-11: 34e Zevenheuvelenloop Nijmegen (72)
19-11: Ronde Venen Marathon Abcoude (2)
18-11: Juul Van De Walleloop Kieldrecht (149)
12-11: Marathon Tenerife (7)
05-11: Marathon Porto (3)
05-11: 21e Berenloop Terschelling (5)
05-11: Herbstlauf Bottrop (2)
29-10: 35e Marathon Brabant Etten-Leur (76)
29-10: 12e Drechtstadloop Dordrecht (10)
28-10: Marathon van Gent (8)
22-10: 10 van AVR Rucphen (6)
21-10: Typhoonloop Gorinchem (1)
15-10: Linker Oevert 1/2 marathon Antwerpen (12)
15-10: 42e Amsterdam Marathon (11)
08-10: Rondje Seppe Bosschenhoofd (5)
08-10: 34e Marathon Eindhoven (11)
08-10: 31e 4 Mijl van Groningen (1)
01-10: 32e Singelloop Breda (40)
Atletiek Zeeland © 2017